Garden Spring, Nevada Weather observations

Data are for 10 minute period ending at time listed.
 Day   Time    Ave.   Ave.  Ave.  Vector   Max.   Stn.    Total    Solar   Ave.  
  of    of     Air    Rel.  Wind   Wind    Wind   Baro.  Precip.   Rad.    Soil  
Year   Day     Temp.  Hum.  Speed  Dir.    Gust   Pres.                    Temp. 
2017   (PST)    F      %     mph   deg.    mph     mb.     in.     W/m2     F    
--------------------------------------------------------------------------------- 
  35   21:00   39.6    75    4.4   258      6.2   852.3    0.00       0    37.0  
  35   22:00   39.6    75    3.8   279      6.6   852.7    0.00       0    36.7  
  35   23:00   39.5    74    4.6   270      6.8   853.0    0.00       0    36.4  
  36    0:00   39.4    75    4.7   253      6.9   853.1    0.00       0    36.2  
  36    1:00   40.5    74    4.0   257      6.5   853.0    0.00       0    36.0  
  36    2:00   40.6    75    3.8   270      5.9   852.9    0.00       0    35.8  
  36    3:00   38.2    78    4.6   273      6.9   852.8    0.00       0    35.5  
  36    4:00   37.5    79    4.8   274      6.8   852.4    0.00       0    35.4  
  36    5:00   37.2    80    4.3   271      6.2   852.0    0.00       0    35.3  
  36    6:00   36.1    83    4.3   272      6.0   852.1    0.00       0    35.2  
  36    7:00   36.4    83    4.9   274      6.8   852.4    0.00       8    35.1  
  36    8:00   42.6    72    3.6   264      6.0   852.9    0.00     137    35.5  
  36    9:00   48.6    62    2.2    89      6.0   853.2    0.00     252    35.8  
  36   10:00   49.2    62    4.1   100      7.6   853.2    0.00     337    35.5  
  36   11:00   51.9    55    3.9   125      8.9   853.1    0.00     526    36.1  
  36   12:00   53.5    50    4.7   128      9.9   852.3    0.00     581    37.0  
  36   13:00   54.2    44    5.4   171     11.4   851.0    0.00     535    38.6  
  36   14:00   52.5    47    5.7   167     10.4   850.0    0.00     363    40.2  
  36   15:00   51.2    47    5.6   148     11.1   849.2    0.00     215    41.3  
  36   16:00   50.5    50    4.2   158      9.5   849.1    0.00     143    41.8  
  36   17:00   47.4    58    3.0   232      5.4   849.1    0.00      40    41.8  
  36   18:00   44.5    66    2.3   252      4.9   849.1    0.00       1    41.7  
  36   19:00   42.1    72    3.0   266      4.9   848.9    0.00       0    41.5  
  36   20:00   41.5    74    3.0   266      5.1   848.9    0.00       0    41.2  

Return to Garden Spring, Nevada graphs page.


Western Regional Climate Center,wrcc@dri.edu